Terminal Aerodrome Forecast
Issued by NWS Newport/Morehead City, NC

Home | Current Version | Previous Version | Text Only | Print | Product List | Glossary Off
Versions: 1 2 3 4 5 6 7 8 9 10 11 12 13 14 15

000
FTUS42 KMHX 270535
TAFEWN
TAF
KEWN 270535Z 2706/2806 20007KT P6SM OVC150
     FM270900 23006KT 6SM -RA BR OVC015
     FM271200 24008KT 4SM -RA BR OVC008
     FM271500 01008G15KT 3SM -RA BR OVC005
     FM280200 36010KT P6SM OVC015=

USA.gov is the U.S. government's official web portal to all federal, state and local government web resources and services.